sensor_id;sensor_type;location;lat;lon;timestamp;temperature;humidity
10384;DHT22;5238;43.508;4.980;2023-02-15T00:01:36;9.00;91.30
10384;DHT22;5238;43.508;4.980;2023-02-15T00:04:05;9.10;91.30
10384;DHT22;5238;43.508;4.980;2023-02-15T00:06:33;9.10;91.30
10384;DHT22;5238;43.508;4.980;2023-02-15T00:09:01;9.10;91.30
10384;DHT22;5238;43.508;4.980;2023-02-15T00:11:29;9.10;91.30
10384;DHT22;5238;43.508;4.980;2023-02-15T00:14:07;9.10;91.30
10384;DHT22;5238;43.508;4.980;2023-02-15T00:16:35;9.10;91.30
10384;DHT22;5238;43.508;4.980;2023-02-15T00:19:04;9.10;91.30
10384;DHT22;5238;43.508;4.980;2023-02-15T00:21:34;9.10;91.30
10384;DHT22;5238;43.508;4.980;2023-02-15T00:24:05;9.10;91.30
10384;DHT22;5238;43.508;4.980;2023-02-15T00:26:32;9.10;91.30
10384;DHT22;5238;43.508;4.980;2023-02-15T00:29:04;9.10;91.30
10384;DHT22;5238;43.508;4.980;2023-02-15T00:31:32;9.10;91.30
10384;DHT22;5238;43.508;4.980;2023-02-15T00:34:01;9.10;91.30
10384;DHT22;5238;43.508;4.980;2023-02-15T00:36:30;9.10;91.30
10384;DHT22;5238;43.508;4.980;2023-02-15T00:38:57;9.20;91.30
10384;DHT22;5238;43.508;4.980;2023-02-15T00:41:24;9.10;91.30
10384;DHT22;5238;43.508;4.980;2023-02-15T00:43:51;9.10;91.30
10384;DHT22;5238;43.508;4.980;2023-02-15T00:46:18;9.10;91.30
10384;DHT22;5238;43.508;4.980;2023-02-15T00:48:45;9.10;91.30
10384;DHT22;5238;43.508;4.980;2023-02-15T00:51:12;9.10;91.30
10384;DHT22;5238;43.508;4.980;2023-02-15T00:53:41;9.10;91.30
10384;DHT22;5238;43.508;4.980;2023-02-15T00:56:08;9.10;91.30
10384;DHT22;5238;43.508;4.980;2023-02-15T00:58:35;9.00;91.30
10384;DHT22;5238;43.508;4.980;2023-02-15T01:01:05;9.00;91.30
10384;DHT22;5238;43.508;4.980;2023-02-15T01:03:34;8.90;91.30
10384;DHT22;5238;43.508;4.980;2023-02-15T01:06:04;8.90;91.30
10384;DHT22;5238;43.508;4.980;2023-02-15T01:08:31;8.90;91.30
10384;DHT22;5238;43.508;4.980;2023-02-15T01:11:05;8.80;91.30
10384;DHT22;5238;43.508;4.980;2023-02-15T01:13:32;8.80;91.30
10384;DHT22;5238;43.508;4.980;2023-02-15T01:15:59;8.70;91.30
10384;DHT22;5238;43.508;4.980;2023-02-15T01:18:26;8.60;91.30
10384;DHT22;5238;43.508;4.980;2023-02-15T01:20:55;8.50;91.30
10384;DHT22;5238;43.508;4.980;2023-02-15T01:23:22;8.50;91.30
10384;DHT22;5238;43.508;4.980;2023-02-15T01:25:49;8.50;91.30
10384;DHT22;5238;43.508;4.980;2023-02-15T01:28:18;8.50;91.30
10384;DHT22;5238;43.508;4.980;2023-02-15T01:30:45;8.50;91.30
10384;DHT22;5238;43.508;4.980;2023-02-15T01:33:12;8.40;91.30
10384;DHT22;5238;43.508;4.980;2023-02-15T01:35:43;8.40;91.30
10384;DHT22;5238;43.508;4.980;2023-02-15T01:38:11;8.40;91.30
10384;DHT22;5238;43.508;4.980;2023-02-15T01:40:40;8.40;91.30
10384;DHT22;5238;43.508;4.980;2023-02-15T01:43:10;8.50;91.30
10384;DHT22;5238;43.508;4.980;2023-02-15T01:45:39;8.50;91.30
10384;DHT22;5238;43.508;4.980;2023-02-15T01:48:17;8.50;91.30
10384;DHT22;5238;43.508;4.980;2023-02-15T01:50:54;8.50;91.30
10384;DHT22;5238;43.508;4.980;2023-02-15T01:53:26;8.50;91.30
10384;DHT22;5238;43.508;4.980;2023-02-15T01:55:57;8.40;91.30
10384;DHT22;5238;43.508;4.980;2023-02-15T01:58:27;8.40;91.30
10384;DHT22;5238;43.508;4.980;2023-02-15T02:00:58;8.40;91.30
10384;DHT22;5238;43.508;4.980;2023-02-15T02:03:41;8.40;91.30
10384;DHT22;5238;43.508;4.980;2023-02-15T02:06:15;8.40;91.30
10384;DHT22;5238;43.508;4.980;2023-02-15T02:08:42;8.40;91.30
10384;DHT22;5238;43.508;4.980;2023-02-15T02:11:10;8.40;91.30
10384;DHT22;5238;43.508;4.980;2023-02-15T02:13:38;8.40;91.30
10384;DHT22;5238;43.508;4.980;2023-02-15T02:16:14;8.40;91.30
10384;DHT22;5238;43.508;4.980;2023-02-15T02:18:54;8.40;91.30
10384;DHT22;5238;43.508;4.980;2023-02-15T02:22:00;8.40;91.30
10384;DHT22;5238;43.508;4.980;2023-02-15T02:27:40;8.40;91.30
10384;DHT22;5238;43.508;4.980;2023-02-15T02:30:42;8.30;91.30
10384;DHT22;5238;43.508;4.980;2023-02-15T02:33:34;8.30;91.30
10384;DHT22;5238;43.508;4.980;2023-02-15T02:36:11;8.30;91.30
10384;DHT22;5238;43.508;4.980;2023-02-15T02:38:48;8.20;91.30
10384;DHT22;5238;43.508;4.980;2023-02-15T02:41:25;8.20;91.30
10384;DHT22;5238;43.508;4.980;2023-02-15T02:44:08;8.20;91.30
10384;DHT22;5238;43.508;4.980;2023-02-15T02:46:41;8.20;91.30
10384;DHT22;5238;43.508;4.980;2023-02-15T02:49:14;8.10;91.30
10384;DHT22;5238;43.508;4.980;2023-02-15T02:54:25;8.10;91.30
10384;DHT22;5238;43.508;4.980;2023-02-15T02:56:53;8.00;91.30
10384;DHT22;5238;43.508;4.980;2023-02-15T02:59:28;8.00;91.30
10384;DHT22;5238;43.508;4.980;2023-02-15T03:02:00;8.00;91.30
10384;DHT22;5238;43.508;4.980;2023-02-15T03:04:34;8.00;91.30
10384;DHT22;5238;43.508;4.980;2023-02-15T03:07:09;7.90;91.30
10384;DHT22;5238;43.508;4.980;2023-02-15T03:09:41;7.90;91.30
10384;DHT22;5238;43.508;4.980;2023-02-15T03:12:12;7.90;91.30
10384;DHT22;5238;43.508;4.980;2023-02-15T03:14:40;7.80;91.30
10384;DHT22;5238;43.508;4.980;2023-02-15T03:17:11;7.80;91.30
10384;DHT22;5238;43.508;4.980;2023-02-15T03:19:44;7.80;91.30
10384;DHT22;5238;43.508;4.980;2023-02-15T03:22:16;7.80;91.30
10384;DHT22;5238;43.508;4.980;2023-02-15T03:24:48;7.80;91.30
10384;DHT22;5238;43.508;4.980;2023-02-15T03:27:19;7.80;91.30
10384;DHT22;5238;43.508;4.980;2023-02-15T03:29:56;7.80;91.30
10384;DHT22;5238;43.508;4.980;2023-02-15T03:32:26;7.80;91.30
10384;DHT22;5238;43.508;4.980;2023-02-15T03:34:55;7.80;91.30
10384;DHT22;5238;43.508;4.980;2023-02-15T03:37:26;7.80;91.30
10384;DHT22;5238;43.508;4.980;2023-02-15T03:39:59;7.90;91.30
10384;DHT22;5238;43.508;4.980;2023-02-15T03:42:50;7.90;91.30
10384;DHT22;5238;43.508;4.980;2023-02-15T03:45:23;8.00;91.30
10384;DHT22;5238;43.508;4.980;2023-02-15T03:47:52;8.00;91.30
10384;DHT22;5238;43.508;4.980;2023-02-15T03:50:29;8.00;91.30
10384;DHT22;5238;43.508;4.980;2023-02-15T03:53:26;8.00;91.30
10384;DHT22;5238;43.508;4.980;2023-02-15T03:55:58;8.00;91.30
10384;DHT22;5238;43.508;4.980;2023-02-15T03:58:25;8.00;91.30
10384;DHT22;5238;43.508;4.980;2023-02-15T04:01:21;8.00;91.30
10384;DHT22;5238;43.508;4.980;2023-02-15T04:04:11;8.10;91.30
10384;DHT22;5238;43.508;4.980;2023-02-15T04:06:43;8.10;91.30
10384;DHT22;5238;43.508;4.980;2023-02-15T04:09:11;8.10;91.30
10384;DHT22;5238;43.508;4.980;2023-02-15T04:12:09;8.10;91.30
10384;DHT22;5238;43.508;4.980;2023-02-15T04:14:37;8.10;91.30
10384;DHT22;5238;43.508;4.980;2023-02-15T04:17:22;8.10;91.30
10384;DHT22;5238;43.508;4.980;2023-02-15T04:19:52;8.10;91.30
10384;DHT22;5238;43.508;4.980;2023-02-15T04:22:38;8.10;91.30
10384;DHT22;5238;43.508;4.980;2023-02-15T04:25:22;8.10;91.30
10384;DHT22;5238;43.508;4.980;2023-02-15T04:27:51;8.10;91.30
10384;DHT22;5238;43.508;4.980;2023-02-15T04:30:19;8.10;91.30
10384;DHT22;5238;43.508;4.980;2023-02-15T04:32:47;8.10;91.30
10384;DHT22;5238;43.508;4.980;2023-02-15T04:35:17;8.10;91.30
10384;DHT22;5238;43.508;4.980;2023-02-15T04:37:45;8.10;91.30
10384;DHT22;5238;43.508;4.980;2023-02-15T04:42:40;8.10;91.30
10384;DHT22;5238;43.508;4.980;2023-02-15T04:45:07;8.10;91.30
10384;DHT22;5238;43.508;4.980;2023-02-15T04:47:34;8.10;91.30
10384;DHT22;5238;43.508;4.980;2023-02-15T04:50:01;8.10;91.30
10384;DHT22;5238;43.508;4.980;2023-02-15T04:52:28;8.10;91.30
10384;DHT22;5238;43.508;4.980;2023-02-15T04:54:59;8.10;91.30
10384;DHT22;5238;43.508;4.980;2023-02-15T04:57:27;8.10;91.30
10384;DHT22;5238;43.508;4.980;2023-02-15T04:59:54;8.10;91.30
10384;DHT22;5238;43.508;4.980;2023-02-15T05:02:21;8.10;91.30
10384;DHT22;5238;43.508;4.980;2023-02-15T05:04:48;8.00;91.30
10384;DHT22;5238;43.508;4.980;2023-02-15T05:07:15;8.00;91.30
10384;DHT22;5238;43.508;4.980;2023-02-15T05:09:43;8.10;91.30
10384;DHT22;5238;43.508;4.980;2023-02-15T05:12:11;8.10;91.30
10384;DHT22;5238;43.508;4.980;2023-02-15T05:14:38;8.10;91.30
10384;DHT22;5238;43.508;4.980;2023-02-15T05:17:05;8.10;91.30
10384;DHT22;5238;43.508;4.980;2023-02-15T05:19:32;8.20;91.30
10384;DHT22;5238;43.508;4.980;2023-02-15T05:22:00;8.20;91.30
10384;DHT22;5238;43.508;4.980;2023-02-15T05:24:29;8.20;91.30
10384;DHT22;5238;43.508;4.980;2023-02-15T05:27:14;8.30;91.30
10384;DHT22;5238;43.508;4.980;2023-02-15T05:29:58;8.30;91.30
10384;DHT22;5238;43.508;4.980;2023-02-15T05:32:25;8.30;91.30
10384;DHT22;5238;43.508;4.980;2023-02-15T05:34:52;8.30;91.30
10384;DHT22;5238;43.508;4.980;2023-02-15T05:37:19;8.30;91.30
10384;DHT22;5238;43.508;4.980;2023-02-15T05:39:46;8.30;91.30
10384;DHT22;5238;43.508;4.980;2023-02-15T05:42:15;8.30;91.30
10384;DHT22;5238;43.508;4.980;2023-02-15T05:44:43;8.20;91.30
10384;DHT22;5238;43.508;4.980;2023-02-15T05:47:10;8.20;91.30
10384;DHT22;5238;43.508;4.980;2023-02-15T05:49:37;8.20;91.30
10384;DHT22;5238;43.508;4.980;2023-02-15T05:52:04;8.20;91.30
10384;DHT22;5238;43.508;4.980;2023-02-15T05:54:31;8.20;91.30
10384;DHT22;5238;43.508;4.980;2023-02-15T05:56:58;8.20;91.30
10384;DHT22;5238;43.508;4.980;2023-02-15T05:59:27;8.20;91.30
10384;DHT22;5238;43.508;4.980;2023-02-15T06:01:54;8.20;91.30
10384;DHT22;5238;43.508;4.980;2023-02-15T06:04:21;8.20;91.30
10384;DHT22;5238;43.508;4.980;2023-02-15T06:06:48;8.30;91.30
10384;DHT22;5238;43.508;4.980;2023-02-15T06:09:17;8.20;91.30
10384;DHT22;5238;43.508;4.980;2023-02-15T06:11:47;8.30;91.30
10384;DHT22;5238;43.508;4.980;2023-02-15T06:14:14;8.30;91.30
10384;DHT22;5238;43.508;4.980;2023-02-15T06:16:42;8.30;91.30
10384;DHT22;5238;43.508;4.980;2023-02-15T06:19:09;8.20;91.30
10384;DHT22;5238;43.508;4.980;2023-02-15T06:21:36;8.20;91.30
10384;DHT22;5238;43.508;4.980;2023-02-15T06:24:04;8.20;91.30
10384;DHT22;5238;43.508;4.980;2023-02-15T06:26:31;8.20;91.30
10384;DHT22;5238;43.508;4.980;2023-02-15T06:28:58;8.20;91.30
10384;DHT22;5238;43.508;4.980;2023-02-15T06:31:25;8.20;91.30
10384;DHT22;5238;43.508;4.980;2023-02-15T06:33:53;8.20;91.30
10384;DHT22;5238;43.508;4.980;2023-02-15T06:36:26;8.20;91.30
10384;DHT22;5238;43.508;4.980;2023-02-15T06:38:53;8.20;91.30
10384;DHT22;5238;43.508;4.980;2023-02-15T06:41:20;8.20;91.30
10384;DHT22;5238;43.508;4.980;2023-02-15T06:43:48;8.20;91.30
10384;DHT22;5238;43.508;4.980;2023-02-15T06:46:18;8.20;91.30
10384;DHT22;5238;43.508;4.980;2023-02-15T06:48:45;8.10;91.30
10384;DHT22;5238;43.508;4.980;2023-02-15T06:51:15;8.10;91.30
10384;DHT22;5238;43.508;4.980;2023-02-15T06:53:46;8.10;91.30
10384;DHT22;5238;43.508;4.980;2023-02-15T06:56:13;8.00;91.30
10384;DHT22;5238;43.508;4.980;2023-02-15T06:58:40;8.00;91.30
10384;DHT22;5238;43.508;4.980;2023-02-15T07:01:08;8.00;91.30
10384;DHT22;5238;43.508;4.980;2023-02-15T07:03:36;7.90;91.30
10384;DHT22;5238;43.508;4.980;2023-02-15T07:06:04;7.90;91.30
10384;DHT22;5238;43.508;4.980;2023-02-15T07:08:38;7.90;91.30
10384;DHT22;5238;43.508;4.980;2023-02-15T07:11:06;7.90;91.30
10384;DHT22;5238;43.508;4.980;2023-02-15T07:13:50;7.90;91.30
10384;DHT22;5238;43.508;4.980;2023-02-15T07:16:19;8.00;91.30
10384;DHT22;5238;43.508;4.980;2023-02-15T07:18:46;8.00;91.30
10384;DHT22;5238;43.508;4.980;2023-02-15T07:21:13;8.10;91.30
10384;DHT22;5238;43.508;4.980;2023-02-15T07:23:44;8.20;91.30
10384;DHT22;5238;43.508;4.980;2023-02-15T07:26:13;8.30;91.30
10384;DHT22;5238;43.508;4.980;2023-02-15T07:28:40;8.30;91.30
10384;DHT22;5238;43.508;4.980;2023-02-15T07:31:07;8.50;91.30
10384;DHT22;5238;43.508;4.980;2023-02-15T07:33:36;8.60;91.30
10384;DHT22;5238;43.508;4.980;2023-02-15T07:36:04;8.70;91.30
10384;DHT22;5238;43.508;4.980;2023-02-15T07:38:33;8.80;91.30
10384;DHT22;5238;43.508;4.980;2023-02-15T07:41:02;9.00;91.30
10384;DHT22;5238;43.508;4.980;2023-02-15T07:43:30;9.10;91.30
10384;DHT22;5238;43.508;4.980;2023-02-15T07:45:59;9.20;91.30
10384;DHT22;5238;43.508;4.980;2023-02-15T07:48:27;9.40;91.30
10384;DHT22;5238;43.508;4.980;2023-02-15T07:50:54;9.60;91.30
10384;DHT22;5238;43.508;4.980;2023-02-15T07:53:27;9.70;91.30
10384;DHT22;5238;43.508;4.980;2023-02-15T07:55:54;9.80;91.30
10384;DHT22;5238;43.508;4.980;2023-02-15T07:58:23;9.90;91.30
10384;DHT22;5238;43.508;4.980;2023-02-15T08:01:10;10.10;91.30
10384;DHT22;5238;43.508;4.980;2023-02-15T08:03:37;10.20;91.30
10384;DHT22;5238;43.508;4.980;2023-02-15T08:06:07;10.30;91.30
10384;DHT22;5238;43.508;4.980;2023-02-15T08:08:36;10.40;91.30
10384;DHT22;5238;43.508;4.980;2023-02-15T08:11:05;10.60;91.30
10384;DHT22;5238;43.508;4.980;2023-02-15T08:13:52;10.70;91.30
10384;DHT22;5238;43.508;4.980;2023-02-15T08:16:27;10.90;91.30
10384;DHT22;5238;43.508;4.980;2023-02-15T08:18:56;11.10;91.30
10384;DHT22;5238;43.508;4.980;2023-02-15T08:21:28;11.20;91.30
10384;DHT22;5238;43.508;4.980;2023-02-15T08:23:59;11.40;91.30
10384;DHT22;5238;43.508;4.980;2023-02-15T08:26:31;11.50;91.30
10384;DHT22;5238;43.508;4.980;2023-02-15T08:29:00;11.80;91.30
10384;DHT22;5238;43.508;4.980;2023-02-15T08:31:28;11.90;91.30
10384;DHT22;5238;43.508;4.980;2023-02-15T08:33:56;12.00;91.30
10384;DHT22;5238;43.508;4.980;2023-02-15T08:36:26;12.20;91.30
10384;DHT22;5238;43.508;4.980;2023-02-15T08:38:53;12.30;91.30
10384;DHT22;5238;43.508;4.980;2023-02-15T08:41:22;12.50;91.30
10384;DHT22;5238;43.508;4.980;2023-02-15T08:43:52;12.60;91.30
10384;DHT22;5238;43.508;4.980;2023-02-15T08:46:25;12.70;91.30
10384;DHT22;5238;43.508;4.980;2023-02-15T08:48:54;12.90;91.30
10384;DHT22;5238;43.508;4.980;2023-02-15T08:51:23;13.00;91.30
10384;DHT22;5238;43.508;4.980;2023-02-15T08:53:52;13.30;91.30
10384;DHT22;5238;43.508;4.980;2023-02-15T08:56:21;13.40;91.30
10384;DHT22;5238;43.508;4.980;2023-02-15T08:58:48;13.60;91.30
10384;DHT22;5238;43.508;4.980;2023-02-15T09:01:16;13.70;91.30
10384;DHT22;5238;43.508;4.980;2023-02-15T09:03:49;13.90;91.30
10384;DHT22;5238;43.508;4.980;2023-02-15T09:06:18;14.00;91.30
10384;DHT22;5238;43.508;4.980;2023-02-15T09:08:50;14.10;91.30
10384;DHT22;5238;43.508;4.980;2023-02-15T09:11:19;14.20;91.30
10384;DHT22;5238;43.508;4.980;2023-02-15T09:13:52;14.30;91.30
10384;DHT22;5238;43.508;4.980;2023-02-15T09:16:22;14.50;91.30
10384;DHT22;5238;43.508;4.980;2023-02-15T09:18:54;14.80;91.30
10384;DHT22;5238;43.508;4.980;2023-02-15T09:21:24;14.80;91.30
10384;DHT22;5238;43.508;4.980;2023-02-15T09:23:56;14.90;91.30
10384;DHT22;5238;43.508;4.980;2023-02-15T09:26:26;15.00;91.30
10384;DHT22;5238;43.508;4.980;2023-02-15T09:28:55;15.20;91.30
10384;DHT22;5238;43.508;4.980;2023-02-15T09:31:25;15.40;91.30
10384;DHT22;5238;43.508;4.980;2023-02-15T09:34:02;15.60;91.30
10384;DHT22;5238;43.508;4.980;2023-02-15T09:36:33;15.90;91.30
10384;DHT22;5238;43.508;4.980;2023-02-15T09:39:04;16.10;91.30
10384;DHT22;5238;43.508;4.980;2023-02-15T09:41:54;16.40;91.30
10384;DHT22;5238;43.508;4.980;2023-02-15T09:44:35;16.40;91.30
10384;DHT22;5238;43.508;4.980;2023-02-15T09:47:20;16.50;91.30
10384;DHT22;5238;43.508;4.980;2023-02-15T09:50:00;16.80;91.30
10384;DHT22;5238;43.508;4.980;2023-02-15T09:52:50;16.90;91.30
10384;DHT22;5238;43.508;4.980;2023-02-15T09:55:43;17.10;91.30
10384;DHT22;5238;43.508;4.980;2023-02-15T09:58:20;17.20;91.30
10384;DHT22;5238;43.508;4.980;2023-02-15T10:00:59;17.40;91.30
10384;DHT22;5238;43.508;4.980;2023-02-15T10:03:41;17.60;91.30
10384;DHT22;5238;43.508;4.980;2023-02-15T10:06:38;17.60;91.30
10384;DHT22;5238;43.508;4.980;2023-02-15T10:09:22;17.80;91.30
10384;DHT22;5238;43.508;4.980;2023-02-15T10:12:10;18.00;91.30
10384;DHT22;5238;43.508;4.980;2023-02-15T10:14:54;18.00;91.30
10384;DHT22;5238;43.508;4.980;2023-02-15T10:17:40;18.00;91.30
10384;DHT22;5238;43.508;4.980;2023-02-15T10:20:26;18.10;91.30
10384;DHT22;5238;43.508;4.980;2023-02-15T10:23:08;18.10;91.30
10384;DHT22;5238;43.508;4.980;2023-02-15T10:25:53;18.30;91.30
10384;DHT22;5238;43.508;4.980;2023-02-15T10:28:26;18.40;91.30
10384;DHT22;5238;43.508;4.980;2023-02-15T10:30:59;18.40;91.30
10384;DHT22;5238;43.508;4.980;2023-02-15T10:33:37;18.40;91.30
10384;DHT22;5238;43.508;4.980;2023-02-15T10:36:15;18.70;91.30
10384;DHT22;5238;43.508;4.980;2023-02-15T10:38:53;18.80;91.30
10384;DHT22;5238;43.508;4.980;2023-02-15T10:41:32;19.00;91.30
10384;DHT22;5238;43.508;4.980;2023-02-15T10:44:17;19.00;91.30
10384;DHT22;5238;43.508;4.980;2023-02-15T10:47:02;18.70;91.30
10384;DHT22;5238;43.508;4.980;2023-02-15T10:49:59;18.70;91.30
10384;DHT22;5238;43.508;4.980;2023-02-15T10:52:57;18.70;91.30
10384;DHT22;5238;43.508;4.980;2023-02-15T10:55:45;18.70;91.30
10384;DHT22;5238;43.508;4.980;2023-02-15T10:58:24;18.70;91.30
10384;DHT22;5238;43.508;4.980;2023-02-15T11:01:05;18.70;91.30
10384;DHT22;5238;43.508;4.980;2023-02-15T11:03:51;18.70;91.30
10384;DHT22;5238;43.508;4.980;2023-02-15T11:06:26;18.50;91.30
10384;DHT22;5238;43.508;4.980;2023-02-15T11:08:59;18.30;91.30
10384;DHT22;5238;43.508;4.980;2023-02-15T11:11:52;18.10;91.30
10384;DHT22;5238;43.508;4.980;2023-02-15T11:14:27;18.10;91.30
10384;DHT22;5238;43.508;4.980;2023-02-15T11:17:02;18.10;91.30
10384;DHT22;5238;43.508;4.980;2023-02-15T11:19:37;18.00;91.30
10384;DHT22;5238;43.508;4.980;2023-02-15T11:22:06;18.00;91.30
10384;DHT22;5238;43.508;4.980;2023-02-15T11:24:40;18.00;91.30
10384;DHT22;5238;43.508;4.980;2023-02-15T11:27:18;18.00;91.30
10384;DHT22;5238;43.508;4.980;2023-02-15T11:29:55;18.00;91.30
10384;DHT22;5238;43.508;4.980;2023-02-15T11:32:28;17.90;91.30
10384;DHT22;5238;43.508;4.980;2023-02-15T11:35:18;17.90;91.30
10384;DHT22;5238;43.508;4.980;2023-02-15T11:38:00;17.70;91.30
10384;DHT22;5238;43.508;4.980;2023-02-15T11:40:39;17.70;91.30
10384;DHT22;5238;43.508;4.980;2023-02-15T11:43:15;17.70;91.30
10384;DHT22;5238;43.508;4.980;2023-02-15T11:45:48;17.60;91.30
10384;DHT22;5238;43.508;4.980;2023-02-15T11:48:19;17.60;91.30
10384;DHT22;5238;43.508;4.980;2023-02-15T11:50:46;17.60;91.30
10384;DHT22;5238;43.508;4.980;2023-02-15T11:53:16;17.60;91.30
10384;DHT22;5238;43.508;4.980;2023-02-15T11:55:52;17.60;91.30
10384;DHT22;5238;43.508;4.980;2023-02-15T11:58:28;17.60;91.30
10384;DHT22;5238;43.508;4.980;2023-02-15T12:01:02;17.60;91.30
10384;DHT22;5238;43.508;4.980;2023-02-15T12:03:48;17.60;91.30
10384;DHT22;5238;43.508;4.980;2023-02-15T12:06:21;17.60;91.30
10384;DHT22;5238;43.508;4.980;2023-02-15T12:08:54;17.60;91.30
10384;DHT22;5238;43.508;4.980;2023-02-15T12:11:27;17.60;91.30
10384;DHT22;5238;43.508;4.980;2023-02-15T12:14:01;17.60;91.30
10384;DHT22;5238;43.508;4.980;2023-02-15T12:16:33;17.70;91.30
10384;DHT22;5238;43.508;4.980;2023-02-15T12:19:24;17.70;91.30
10384;DHT22;5238;43.508;4.980;2023-02-15T12:21:54;17.70;91.30
10384;DHT22;5238;43.508;4.980;2023-02-15T12:24:25;17.70;91.30
10384;DHT22;5238;43.508;4.980;2023-02-15T12:26:58;17.80;91.30
10384;DHT22;5238;43.508;4.980;2023-02-15T12:29:31;17.80;91.30
10384;DHT22;5238;43.508;4.980;2023-02-15T12:32:03;17.80;91.30
10384;DHT22;5238;43.508;4.980;2023-02-15T12:34:35;17.90;91.30
10384;DHT22;5238;43.508;4.980;2023-02-15T12:37:14;17.90;91.30
10384;DHT22;5238;43.508;4.980;2023-02-15T12:39:53;17.90;91.30
10384;DHT22;5238;43.508;4.980;2023-02-15T12:42:26;17.90;91.30
10384;DHT22;5238;43.508;4.980;2023-02-15T12:45:04;17.90;91.30
10384;DHT22;5238;43.508;4.980;2023-02-15T12:48:08;17.80;91.30
10384;DHT22;5238;43.508;4.980;2023-02-15T12:50:39;17.70;91.30
10384;DHT22;5238;43.508;4.980;2023-02-15T12:53:13;17.70;91.30
10384;DHT22;5238;43.508;4.980;2023-02-15T12:55:50;17.60;91.30
10384;DHT22;5238;43.508;4.980;2023-02-15T12:58:19;17.50;91.30
10384;DHT22;5238;43.508;4.980;2023-02-15T13:01:03;17.50;91.30
10384;DHT22;5238;43.508;4.980;2023-02-15T13:03:31;17.50;91.30
10384;DHT22;5238;43.508;4.980;2023-02-15T13:06:03;17.50;91.30
10384;DHT22;5238;43.508;4.980;2023-02-15T13:08:37;17.40;91.30
10384;DHT22;5238;43.508;4.980;2023-02-15T13:11:07;17.30;91.30
10384;DHT22;5238;43.508;4.980;2023-02-15T13:13:38;17.30;91.30
10384;DHT22;5238;43.508;4.980;2023-02-15T13:16:15;17.30;91.30
10384;DHT22;5238;43.508;4.980;2023-02-15T13:18:52;17.20;91.30
10384;DHT22;5238;43.508;4.980;2023-02-15T13:21:23;17.10;91.30
10384;DHT22;5238;43.508;4.980;2023-02-15T13:23:55;17.10;91.30
10384;DHT22;5238;43.508;4.980;2023-02-15T13:26:29;17.10;91.30
10384;DHT22;5238;43.508;4.980;2023-02-15T13:29:00;17.00;91.30
10384;DHT22;5238;43.508;4.980;2023-02-15T13:31:38;17.00;91.30
10384;DHT22;5238;43.508;4.980;2023-02-15T13:34:10;17.00;91.30
10384;DHT22;5238;43.508;4.980;2023-02-15T13:36:46;16.90;91.30
10384;DHT22;5238;43.508;4.980;2023-02-15T13:39:23;16.90;91.30
10384;DHT22;5238;43.508;4.980;2023-02-15T13:41:56;16.90;91.30
10384;DHT22;5238;43.508;4.980;2023-02-15T13:47:47;16.70;91.30
10384;DHT22;5238;43.508;4.980;2023-02-15T13:50:31;16.60;91.30
10384;DHT22;5238;43.508;4.980;2023-02-15T13:56:04;16.50;91.30
10384;DHT22;5238;43.508;4.980;2023-02-15T14:01:55;16.40;91.30
10384;DHT22;5238;43.508;4.980;2023-02-15T14:04:50;16.40;91.30
10384;DHT22;5238;43.508;4.980;2023-02-15T14:07:37;16.40;91.30
10384;DHT22;5238;43.508;4.980;2023-02-15T14:10:33;16.40;91.30
10384;DHT22;5238;43.508;4.980;2023-02-15T14:16:15;16.20;91.30
10384;DHT22;5238;43.508;4.980;2023-02-15T14:18:51;16.20;91.30
10384;DHT22;5238;43.508;4.980;2023-02-15T14:21:34;16.20;91.30
10384;DHT22;5238;43.508;4.980;2023-02-15T14:24:21;16.20;91.30
10384;DHT22;5238;43.508;4.980;2023-02-15T14:26:59;16.20;91.30
10384;DHT22;5238;43.508;4.980;2023-02-15T14:29:42;16.10;91.30
10384;DHT22;5238;43.508;4.980;2023-02-15T14:32:24;16.10;91.30
10384;DHT22;5238;43.508;4.980;2023-02-15T14:34:54;16.00;91.30
10384;DHT22;5238;43.508;4.980;2023-02-15T14:37:31;16.00;91.30
10384;DHT22;5238;43.508;4.980;2023-02-15T14:40:06;16.00;91.30
10384;DHT22;5238;43.508;4.980;2023-02-15T14:42:57;15.90;91.30
10384;DHT22;5238;43.508;4.980;2023-02-15T14:45:30;15.90;91.30
10384;DHT22;5238;43.508;4.980;2023-02-15T14:48:07;15.90;91.30
10384;DHT22;5238;43.508;4.980;2023-02-15T14:50:48;15.80;91.30
10384;DHT22;5238;43.508;4.980;2023-02-15T14:53:37;15.80;91.30
10384;DHT22;5238;43.508;4.980;2023-02-15T14:56:24;15.80;91.30
10384;DHT22;5238;43.508;4.980;2023-02-15T15:01:42;15.80;91.30
10384;DHT22;5238;43.508;4.980;2023-02-15T15:04:25;15.70;91.30
10384;DHT22;5238;43.508;4.980;2023-02-15T15:07:01;15.70;91.30
10384;DHT22;5238;43.508;4.980;2023-02-15T15:09:34;15.70;91.30
10384;DHT22;5238;43.508;4.980;2023-02-15T15:15:03;15.60;91.30
10384;DHT22;5238;43.508;4.980;2023-02-15T15:17:56;15.60;91.30
10384;DHT22;5238;43.508;4.980;2023-02-15T15:20:54;15.60;91.30
10384;DHT22;5238;43.508;4.980;2023-02-15T15:23:42;15.50;91.30
10384;DHT22;5238;43.508;4.980;2023-02-15T15:26:36;15.50;91.30
10384;DHT22;5238;43.508;4.980;2023-02-15T15:29:06;15.40;91.30
10384;DHT22;5238;43.508;4.980;2023-02-15T15:31:49;15.40;91.30
10384;DHT22;5238;43.508;4.980;2023-02-15T15:37:49;15.30;91.30
10384;DHT22;5238;43.508;4.980;2023-02-15T15:40:46;15.30;91.30
10384;DHT22;5238;43.508;4.980;2023-02-15T15:44:03;15.20;91.30
10384;DHT22;5238;43.508;4.980;2023-02-15T15:46:46;15.20;91.30
10384;DHT22;5238;43.508;4.980;2023-02-15T15:49:17;15.20;91.30
10384;DHT22;5238;43.508;4.980;2023-02-15T15:51:46;15.10;91.30
10384;DHT22;5238;43.508;4.980;2023-02-15T15:54:17;15.10;91.30
10384;DHT22;5238;43.508;4.980;2023-02-15T15:56:49;15.00;91.30
10384;DHT22;5238;43.508;4.980;2023-02-15T15:59:24;15.00;91.30
10384;DHT22;5238;43.508;4.980;2023-02-15T16:01:51;15.00;91.30
10384;DHT22;5238;43.508;4.980;2023-02-15T16:04:26;14.90;91.30
10384;DHT22;5238;43.508;4.980;2023-02-15T16:06:55;14.90;91.30
10384;DHT22;5238;43.508;4.980;2023-02-15T16:09:24;14.80;91.30
10384;DHT22;5238;43.508;4.980;2023-02-15T16:11:54;14.80;91.30
10384;DHT22;5238;43.508;4.980;2023-02-15T16:14:30;14.70;91.30
10384;DHT22;5238;43.508;4.980;2023-02-15T16:17:00;14.70;91.30
10384;DHT22;5238;43.508;4.980;2023-02-15T16:19:30;14.60;91.30
10384;DHT22;5238;43.508;4.980;2023-02-15T16:22:01;14.60;91.30
10384;DHT22;5238;43.508;4.980;2023-02-15T16:27:35;14.50;91.30
10384;DHT22;5238;43.508;4.980;2023-02-15T16:30:26;14.40;91.30
10384;DHT22;5238;43.508;4.980;2023-02-15T16:32:55;14.40;91.30
10384;DHT22;5238;43.508;4.980;2023-02-15T16:35:23;14.30;91.30
10384;DHT22;5238;43.508;4.980;2023-02-15T16:37:51;14.30;91.30
10384;DHT22;5238;43.508;4.980;2023-02-15T16:40:50;14.30;91.30
10384;DHT22;5238;43.508;4.980;2023-02-15T16:43:23;14.20;91.30
10384;DHT22;5238;43.508;4.980;2023-02-15T16:46:02;14.10;91.30
10384;DHT22;5238;43.508;4.980;2023-02-15T16:48:31;14.10;91.30
10384;DHT22;5238;43.508;4.980;2023-02-15T16:51:02;14.00;91.30
10384;DHT22;5238;43.508;4.980;2023-02-15T16:53:29;14.00;91.30
10384;DHT22;5238;43.508;4.980;2023-02-15T16:55:58;13.90;91.30
10384;DHT22;5238;43.508;4.980;2023-02-15T16:58:32;13.90;91.30
10384;DHT22;5238;43.508;4.980;2023-02-15T17:01:12;14.00;91.30
10384;DHT22;5238;43.508;4.980;2023-02-15T17:03:41;14.10;91.30
10384;DHT22;5238;43.508;4.980;2023-02-15T17:06:20;14.20;91.30
10384;DHT22;5238;43.508;4.980;2023-02-15T17:08:47;14.30;91.30